Time;durP1;ratioP1;P1;durP2;ratioP2;P2;SDS_P1;SDS_P2;PMS_P1;PMS_P2;Temp;Humidity;BMP_temperature;BMP_pressure;BME280_temperature;BME280_humidity;BME280_pressure;Samples;Min_cycle;Max_cycle;Signal;HPM_P1;HPM_P2
2021/07/14 00:01:49;;;;;;;15.27;11.05;;;;;;;23.36;70.68;100233.22;5046608;28;20495;-70
2021/07/14 00:04:15;;;;;;;14.27;10.90;;;;;;;23.39;70.43;100241.06;5036715;28;20024;-71
2021/07/14 00:06:40;;;;;;;13.30;10.57;;;;;;;23.17;70.23;100200.25;5053429;28;20021;-68
2021/07/14 00:09:09;;;;;;;13.57;10.85;;;;;;;23.09;70.54;100198.59;5052479;28;20063;-69
2021/07/14 00:11:39;;;;;;;15.73;11.55;;;;;;;23.33;70.33;100242.94;5053813;28;20020;-68
2021/07/14 00:22:11;;;;;;;12.68;10.48;;;;;;;23.54;69.72;100246.91;5037656;28;20554;-70
2021/07/14 00:24:37;;;;;;;13.27;11.45;;;;;;;23.14;70.25;100203.78;5042846;28;20021;-71
2021/07/14 00:27:06;;;;;;;13.88;11.63;;;;;;;23.32;70.25;100239.44;5053270;28;20707;-69
2021/07/14 00:29:35;;;;;;;14.60;11.20;;;;;;;23.33;69.93;100217.47;5053237;28;20031;-70
2021/07/14 00:32:01;;;;;;;;;;;;;;;23.40;69.86;100242.81;5053979;28;20064;-66
2021/07/14 00:34:26;;;;;;;12.63;11.02;;;;;;;23.45;69.61;100247.13;5053659;28;19975;-72
2021/07/14 00:36:52;;;;;;;12.75;11.23;;;;;;;23.36;69.12;100209.50;5049819;28;20033;-75
2021/07/14 00:39:17;;;;;;;14.60;11.15;;;;;;;23.47;68.92;100211.94;5053232;28;20028;-74
2021/07/14 00:41:43;;;;;;;12.90;11.57;;;;;;;23.22;70.55;100219.47;5053363;28;20021;-75
2021/07/14 00:44:08;;;;;;;13.65;11.55;;;;;;;23.09;71.02;100226.69;5053083;28;20388;-72
2021/07/14 00:46:34;;;;;;;13.10;11.68;;;;;;;23.21;71.01;100236.16;5027946;28;20046;-77
2021/07/14 00:49:01;;;;;;;12.90;11.60;;;;;;;23.23;70.90;100235.22;5026074;28;20045;-75
2021/07/14 00:51:30;;;;;;;12.80;11.50;;;;;;;23.14;71.07;100243.28;5028636;28;20056;-74
2021/07/14 00:53:57;;;;;;;13.97;11.70;;;;;;;23.16;71.17;100227.47;5026476;28;20037;-76
2021/07/14 00:56:25;;;;;;;16.15;11.95;;;;;;;23.17;71.74;100227.44;5028149;28;20052;-74
2021/07/14 00:58:54;;;;;;;14.38;11.52;;;;;;;22.85;72.23;100201.69;5010809;28;20033;-75
2021/07/14 01:01:20;;;;;;;13.55;11.95;;;;;;;23.02;72.67;100248.78;5027216;28;20449;-73
2021/07/14 01:04:07;;;;;;;17.55;13.18;;;;;;;22.97;72.99;100242.69;5028638;28;20038;-73
2021/07/14 01:06:47;;;;;;;14.40;12.25;;;;;;;22.99;73.27;100248.81;5028019;28;20120;-73
2021/07/14 01:09:15;;;;;;;16.35;12.32;;;;;;;22.99;73.26;100233.91;5025835;28;20029;-73
2021/07/14 01:11:42;;;;;;;14.00;12.57;;;;;;;22.90;73.33;100234.94;5017039;28;20064;-74
2021/07/14 01:14:21;;;;;;;17.90;12.88;;;;;;;22.87;73.61;100244.66;5028485;28;20032;-74
2021/07/14 01:16:49;;;;;;;13.65;11.73;;;;;;;22.85;74.01;100244.66;5034194;28;20044;-74
2021/07/14 01:19:33;;;;;;;15.07;12.70;;;;;;;22.86;73.41;100242.91;5052582;28;20056;-77
2021/07/14 01:22:11;;;;;;;13.93;12.38;;;;;;;22.85;73.74;100246.44;5052591;28;20643;-75
2021/07/14 01:25:03;;;;;;;13.65;12.13;;;;;;;22.53;74.21;100217.16;5051462;28;20043;-77
2021/07/14 01:27:34;;;;;;;15.45;12.55;;;;;;;22.65;74.11;100245.00;5051306;28;20484;-76
2021/07/14 01:30:01;;;;;;;14.10;12.60;;;;;;;22.56;74.30;100232.88;5051022;28;20123;-74
2021/07/14 01:32:29;;;;;;;14.38;12.88;;;;;;;22.80;73.75;100227.22;5052642;28;20591;-73
2021/07/14 01:35:26;;;;;;;14.90;12.90;;;;;;;22.88;72.84;100241.97;5052601;28;20032;-76
2021/07/14 01:37:54;;;;;;;15.32;12.35;;;;;;;22.88;72.23;100236.72;5013285;28;20045;-76
2021/07/14 01:40:22;;;;;;;14.13;12.23;;;;;;;22.98;72.09;100236.53;5024968;28;20056;-76
2021/07/14 01:42:53;;;;;;;13.15;11.85;;;;;;;22.90;72.12;100231.41;5010004;28;20034;-74
2021/07/14 01:45:18;;;;;;;19.30;13.05;;;;;;;22.78;73.21;100237.78;5010155;28;20091;-74
2021/07/14 01:47:46;;;;;;;18.88;12.65;;;;;;;;;;5010075;28;20038;-74
2021/07/14 01:50:12;;;;;;;15.80;12.55;;;;;;;22.83;72.82;100238.56;5026421;28;20142;-75
2021/07/14 01:52:40;;;;;;;14.45;12.23;;;;;;;22.64;73.82;100232.72;5009743;28;20071;-75
2021/07/14 01:55:07;;;;;;;14.65;12.27;;;;;;;22.42;73.35;100212.06;5009633;28;20038;-74
2021/07/14 01:57:36;;;;;;;18.27;12.63;;;;;;;22.59;73.09;100235.47;5008531;28;20557;-76
2021/07/14 02:00:12;;;;;;;17.45;13.32;;;;;;;22.58;73.57;100246.00;5010031;28;20076;-75
2021/07/14 02:02:50;;;;;;;18.63;12.90;;;;;;;22.50;74.13;100229.47;5009583;28;20440;-73
2021/07/14 02:05:15;;;;;;;17.60;12.82;;;;;;;22.45;74.38;100237.44;5009798;28;20030;-75
2021/07/14 02:07:41;;;;;;;16.85;13.18;;;;;;;22.42;74.00;100226.97;5009413;28;20556;-74
2021/07/14 02:10:07;;;;;;;15.13;13.45;;;;;;;22.29;74.18;100226.25;5009799;28;20037;-75
2021/07/14 02:12:34;;;;;;;16.80;13.50;;;;;;;22.32;74.32;100242.00;4989817;28;20027;-76
2021/07/14 02:15:06;;;;;;;16.52;13.38;;;;;;;22.31;73.99;100250.78;5031502;28;20042;-73
2021/07/14 02:18:09;;;;;;;15.13;12.73;;;;;;;22.32;74.09;100234.09;5051755;28;20017;-73
2021/07/14 02:20:35;;;;;;;16.38;13.63;;;;;;;22.29;74.01;100221.88;5029383;28;20049;-74
2021/07/14 02:23:05;;;;;;;14.52;12.98;;;;;;;22.36;73.95;100232.31;5029140;28;20060;-74
2021/07/14 02:25:32;;;;;;;;;;;;;;;22.34;74.41;100234.94;5012623;28;20040;-72
2021/07/14 02:27:57;;;;;;;15.32;13.43;;;;;;;22.19;74.13;100204.47;5029104;28;20347;-74
2021/07/14 02:30:23;;;;;;;15.98;14.35;;;;;;;22.38;73.03;100209.50;5028715;28;20025;-74
2021/07/14 02:32:54;;;;;;;14.40;12.95;;;;;;;22.26;74.36;100244.72;5029207;28;20128;-73
2021/07/14 02:35:21;;;;;;;15.90;14.20;;;;;;;21.97;75.75;100238.13;5012151;28;20033;-73
2021/07/14 02:37:54;;;;;;;18.90;13.90;;;;;;;21.95;76.24;100235.50;5012061;28;20056;-74
2021/07/14 02:40:27;;;;;;;16.33;14.23;;;;;;;22.12;75.37;100240.53;5028769;28;20095;-76
2021/07/14 02:42:56;;;;;;;15.48;13.88;;;;;;;22.10;74.98;100246.69;5028741;28;20021;-74
2021/07/14 02:45:22;;;;;;;15.52;13.15;;;;;;;21.99;75.36;100249.47;5028955;28;20080;-75
2021/07/14 02:47:49;;;;;;;16.13;13.77;;;;;;;21.88;75.64;100231.25;5011932;28;20033;-77
2021/07/14 02:50:19;;;;;;;18.58;13.98;;;;;;;21.97;75.36;100248.63;5028628;28;20065;-74
2021/07/14 02:52:52;;;;;;;14.40;12.88;;;;;;;22.00;75.40;100245.09;5028762;28;20033;-73
2021/07/14 02:55:21;;;;;;;17.58;13.90;;;;;;;21.60;75.47;100199.19;5028935;28;20107;-74
2021/07/14 02:57:50;;;;;;;17.08;13.27;;;;;;;21.91;75.72;100251.34;5036429;28;20482;-75
2021/07/14 03:00:16;;;;;;;18.92;13.95;;;;;;;21.99;75.58;100244.22;5049719;28;20116;-74
2021/07/14 03:02:45;;;;;;;17.15;13.52;;;;;;;21.87;75.03;100215.47;5050854;28;20470;-77
2021/07/14 03:05:11;;;;;;;15.43;13.85;;;;;;;22.10;75.05;100242.28;5050942;28;20562;-73
2021/07/14 03:07:38;;;;;;;15.40;13.55;;;;;;;22.20;74.26;100242.19;5050506;28;20037;-75
2021/07/14 03:10:05;;;;;;;17.48;13.93;;;;;;;22.21;74.67;100244.78;5048980;28;20151;-73
2021/07/14 03:12:31;;;;;;;15.55;13.13;;;;;;;21.98;74.79;100213.56;5051168;28;20032;-73
2021/07/14 03:14:59;;;;;;;17.08;15.32;;;;;;;22.08;74.74;100238.84;5050676;28;20017;-73
2021/07/14 03:17:28;;;;;;;16.67;14.60;;;;;;;22.21;75.10;100257.94;5050912;28;20036;-73
2021/07/14 03:19:55;;;;;;;30.75;15.30;;;;;;;22.06;75.29;100250.28;5050586;28;20047;-73
2021/07/14 03:22:22;;;;;;;19.63;14.80;;;;;;;22.17;75.25;100257.97;5050947;28;20033;-72
2021/07/14 03:24:47;;;;;;;19.33;14.05;;;;;;;22.04;74.90;100226.59;5050698;28;20037;-74
2021/07/14 03:27:14;;;;;;;18.15;13.27;;;;;;;22.35;73.06;100247.19;5049329;28;20029;-72
2021/07/14 03:29:40;;;;;;;15.25;13.65;;;;;;;22.54;73.15;100265.34;5050453;28;20491;-77
2021/07/14 03:32:07;;;;;;;18.00;13.48;;;;;;;22.28;73.74;100271.84;5050688;28;20043;-73
2021/07/14 03:34:33;;;;;;;22.02;13.55;;;;;;;21.71;74.94;100248.94;5050797;28;20021;-75
2021/07/14 03:37:04;;;;;;;15.95;13.35;;;;;;;21.84;75.20;100275.97;5050403;28;20542;-75
2021/07/14 03:39:33;;;;;;;22.15;14.52;;;;;;;21.71;76.15;100276.13;5050890;28;20029;-74
2021/07/14 03:41:59;;;;;;;;;;;;;;;21.71;76.56;100273.50;5051628;28;20036;-77
2021/07/14 03:44:26;;;;;;;18.92;14.30;;;;;;;21.61;76.13;100254.34;5050737;28;19908;-74
2021/07/14 03:46:53;;;;;;;17.55;14.25;;;;;;;21.93;75.44;100276.72;5049481;28;20549;-77
2021/07/14 03:49:19;;;;;;;18.98;14.23;;;;;;;22.01;75.39;100273.09;5050813;28;20047;-73
2021/07/14 03:51:46;;;;;;;18.33;13.88;;;;;;;22.00;75.20;100261.72;5048860;28;20473;-74
2021/07/14 03:54:14;;;;;;;16.50;13.52;;;;;;;22.22;74.08;100279.81;5050662;28;20027;-73
2021/07/14 03:56:40;;;;;;;15.38;13.50;;;;;;;22.25;74.92;100269.28;5045908;28;20500;-73
2021/07/14 03:59:06;;;;;;;20.13;13.95;;;;;;;22.26;75.02;100285.03;5044995;28;20090;-74
2021/07/14 04:01:31;;;;;;;17.67;14.00;;;;;;;21.89;76.60;100288.13;5049220;28;20024;-74
2021/07/14 04:03:57;;;;;;;17.48;13.95;;;;;;;21.94;76.04;100283.72;5050248;28;20047;-74
2021/07/14 04:06:24;;;;;;;16.40;14.02;;;;;;;21.83;76.96;100295.25;5050125;28;20088;-73
2021/07/14 04:09:09;;;;;;;16.10;13.38;;;;;;;21.94;76.16;100285.47;5050153;28;20489;-77
2021/07/14 04:11:35;;;;;;;20.17;13.88;;;;;;;21.87;76.90;100289.06;5050212;28;20028;-74
2021/07/14 04:14:01;;;;;;;19.27;13.85;;;;;;;21.74;76.99;100301.47;5047790;28;20574;-78
2021/07/14 04:16:27;;;;;;;18.15;13.82;;;;;;;21.84;76.39;100307.50;5031092;28;20159;-73
2021/07/14 04:18:52;;;;;;;25.50;14.40;;;;;;;21.92;76.11;100295.13;5047521;28;20451;-79
2021/07/14 04:21:18;;;;;;;18.83;14.73;;;;;;;21.51;77.93;100263.19;5049162;28;20025;-76
2021/07/14 04:23:43;;;;;;;18.52;14.63;;;;;;;21.53;78.76;100300.78;5051371;28;20044;-76
2021/07/14 04:26:09;;;;;;;17.52;14.73;;;;;;;21.75;78.65;100304.09;5051235;28;20032;-76
2021/07/14 04:28:34;;;;;;;19.58;16.05;;;;;;;21.89;78.32;100303.91;5050993;28;20051;-75
2021/07/14 04:31:00;;;;;;;19.35;16.00;;;;;;;21.87;78.63;100304.81;5051525;28;20031;-80
2021/07/14 04:33:25;;;;;;;18.73;16.45;;;;;;;21.77;79.69;100298.81;5037961;28;20081;-76
2021/07/14 04:35:51;;;;;;;17.55;15.85;;;;;;;22.01;78.70;100308.16;5026850;28;20068;-74
2021/07/14 04:38:17;;;;;;;18.42;16.48;;;;;;;22.07;78.47;100317.69;5037718;28;20030;-74
2021/07/14 04:40:44;;;;;;;18.67;16.67;;;;;;;21.98;78.69;100314.31;5024611;28;20713;-75
2021/07/14 04:43:10;;;;;;;19.02;16.38;;;;;;;22.10;78.63;100315.06;5025274;28;20041;-75
2021/07/14 04:45:36;;;;;;;19.42;16.80;;;;;;;21.85;79.46;100317.13;5045987;28;20393;-73
2021/07/14 04:48:02;;;;;;;23.48;17.90;;;;;;;21.84;80.91;100310.97;5050987;28;20032;-72
2021/07/14 04:50:29;;;;;;;19.92;17.83;;;;;;;21.84;80.22;100307.50;5051630;28;20032;-73
2021/07/14 04:52:54;;;;;;;19.92;17.17;;;;;;;22.10;79.55;100313.28;5046524;28;20025;-73
2021/07/14 04:55:20;;;;;;;23.38;16.70;;;;;;;22.46;78.30;100324.22;5052323;28;20071;-74
2021/07/14 04:57:45;;;;;;;19.40;16.73;;;;;;;22.71;78.77;100329.09;5052438;28;20170;-73
2021/07/14 05:00:11;;;;;;;18.08;16.17;;;;;;;22.90;77.55;100328.81;5053414;28;20029;-74
2021/07/14 05:02:37;;;;;;;20.60;15.98;;;;;;;22.96;77.90;100323.44;5053212;28;20033;-74
2021/07/14 05:05:04;;;;;;;20.45;14.63;;;;;;;23.10;76.85;100332.00;5053844;28;20033;-73
2021/07/14 05:07:32;;;;;;;22.95;15.48;;;;;;;23.09;76.27;100311.81;5052294;28;20017;-74
2021/07/14 05:09:58;;;;;;;26.70;16.10;;;;;;;23.18;77.51;100344.16;5053368;28;20037;-73
2021/07/14 05:12:24;;;;;;;17.70;15.30;;;;;;;23.12;77.93;100331.09;5053120;28;20029;-73
2021/07/14 05:14:49;;;;;;;18.88;15.30;;;;;;;23.29;76.51;100336.09;5052812;28;20029;-74
2021/07/14 05:17:15;;;;;;;22.30;15.27;;;;;;;23.41;77.77;100335.88;5053313;28;20048;-74
2021/07/14 05:19:40;;;;;;;16.63;15.00;;;;;;;23.54;75.80;100336.50;5053167;28;20032;-73
2021/07/14 05:22:06;;;;;;;15.32;13.80;;;;;;;23.54;75.45;100340.03;5052877;28;20027;-73
2021/07/14 05:24:31;;;;;;;18.95;14.70;;;;;;;23.65;76.75;100337.19;5052790;28;20029;-74
2021/07/14 05:26:57;;;;;;;17.27;15.55;;;;;;;23.55;76.79;100335.59;5052658;28;20028;-74
2021/07/14 05:29:22;;;;;;;18.63;14.95;;;;;;;23.36;76.55;100296.44;5052727;28;20025;-73
2021/07/14 05:31:48;;;;;;;16.25;14.75;;;;;;;23.64;75.64;100343.34;5051232;28;20036;-72
2021/07/14 05:34:13;;;;;;;17.02;15.32;;;;;;;23.63;75.98;100338.97;5052486;28;20033;-73
2021/07/14 05:36:38;;;;;;;16.77;15.07;;;;;;;23.25;76.66;100311.56;5050931;28;20021;-75
2021/07/14 05:39:06;;;;;;;20.05;15.30;;;;;;;23.38;76.61;100342.06;5050468;28;20040;-73
2021/07/14 05:41:31;;;;;;;18.45;16.52;;;;;;;23.37;77.34;100331.56;5046742;28;20037;-74
2021/07/14 05:43:57;;;;;;;19.20;15.25;;;;;;;23.42;77.64;100334.97;5032567;28;20036;-75
2021/07/14 05:46:25;;;;;;;17.33;15.52;;;;;;;23.47;76.28;100340.19;5032309;28;20033;-73
2021/07/14 05:48:50;;;;;;;16.00;14.30;;;;;;;23.62;75.84;100337.25;5032565;28;20037;-74
2021/07/14 05:51:16;;;;;;;16.50;14.52;;;;;;;23.97;74.67;100337.47;5032049;28;20026;-73
2021/07/14 05:53:42;;;;;;;18.38;15.68;;;;;;;23.55;74.59;100282.91;5032327;28;20104;-73
2021/07/14 05:56:07;;;;;;;17.60;14.43;;;;;;;24.09;73.75;100349.53;5031958;28;20105;-73
2021/07/14 05:58:33;;;;;;;14.63;13.10;;;;;;;24.29;71.49;100347.34;5032665;28;20034;-75
2021/07/14 06:00:58;;;;;;;19.45;14.05;;;;;;;24.50;71.42;100342.47;5052100;28;20855;-73
2021/07/14 06:03:23;;;;;;;17.30;14.93;;;;;;;24.47;71.26;100348.69;5052375;28;20389;-74
2021/07/14 06:05:49;;;;;;;18.13;15.23;;;;;;;24.48;70.86;100352.22;5052023;28;20461;-76
2021/07/14 06:08:14;;;;;;;16.30;14.23;;;;;;;24.55;69.96;100333.56;5052188;28;20028;-75
2021/07/14 06:10:40;;;;;;;19.10;14.88;;;;;;;24.80;69.82;100353.25;5052101;28;20025;-74
2021/07/14 06:13:07;;;;;;;18.70;14.38;;;;;;;24.82;69.52;100341.75;5051854;28;20108;-78
2021/07/14 06:15:32;;;;;;;18.70;15.30;;;;;;;24.94;69.43;100363.50;5051834;28;20555;-75
2021/07/14 06:17:59;;;;;;;18.50;15.38;;;;;;;24.89;69.09;100352.19;5051863;28;20111;-77
2021/07/14 06:20:25;;;;;;;20.20;15.25;;;;;;;24.96;69.31;100369.59;5052126;28;20106;-79
2021/07/14 06:22:50;;;;;;;19.85;14.73;;;;;;;25.10;67.97;100370.13;5051786;28;20484;-78
2021/07/14 06:25:16;;;;;;;15.27;13.70;;;;;;;25.31;67.08;100374.00;5051613;28;20407;-80
2021/07/14 06:27:43;;;;;;;14.88;13.38;;;;;;;25.39;66.29;100367.69;5051609;28;20455;-78
2021/07/14 06:30:14;;;;;;;18.52;14.02;;;;;;;25.47;65.96;100376.25;5050237;28;20480;-79
2021/07/14 06:32:40;;;;;;;16.73;12.88;;;;;;;25.70;63.84;100369.50;5051671;28;20124;-78
2021/07/14 06:35:08;;;;;;;16.27;13.77;;;;;;;25.59;65.84;100338.06;5051768;28;20059;-77
2021/07/14 06:37:34;;;;;;;15.30;13.68;;;;;;;25.84;63.92;100356.75;5050160;28;20064;-79
2021/07/14 06:40:00;;;;;;;19.25;14.55;;;;;;;25.97;65.13;100355.50;5050320;28;20060;-77
2021/07/14 06:42:25;;;;;;;18.23;13.55;;;;;;;26.07;63.21;100357.91;5049944;28;20025;-77
2021/07/14 06:44:51;;;;;;;17.67;13.50;;;;;;;26.10;64.47;100344.59;5041561;28;20412;-77
2021/07/14 06:47:19;;;;;;;15.25;12.75;;;;;;;26.24;64.28;100354.75;5051397;28;20487;-78
2021/07/14 06:49:45;;;;;;;14.88;12.27;;;;;;;26.14;62.62;100352.41;5051586;28;20086;-78
2021/07/14 06:52:11;;;;;;;16.80;12.63;;;;;;;26.19;61.67;100331.06;5051262;28;20021;-77
2021/07/14 06:54:38;;;;;;;17.75;12.55;;;;;;;26.49;61.24;100357.50;5051399;28;20029;-79
2021/07/14 06:57:05;;;;;;;14.18;12.05;;;;;;;26.53;61.58;100324.75;5051120;28;20060;-76
2021/07/14 11:41:45;;;;;;;11.80;5.80;;;;;;;35.44;29.82;100233.53;5034296;28;20598;-72
2021/07/14 11:44:11;;;;;;;19.63;6.75;;;;;;;35.41;29.77;100232.88;5053376;28;20425;-88
2021/07/14 11:46:38;;;;;;;10.73;6.35;;;;;;;35.60;29.66;100233.28;5053385;28;20033;-75
2021/07/14 11:49:07;;;;;;;6.85;6.05;;;;;;;35.67;31.39;100243.59;5046815;28;20032;-75
2021/07/14 11:51:39;;;;;;;8.05;5.70;;;;;;;35.79;30.97;100242.66;5038240;28;20039;-86
2021/07/14 11:54:25;;;;;;;10.23;5.35;;;;;;;35.50;29.25;100216.09;5056208;28;20032;-84
2021/07/14 11:56:52;;;;;;;7.88;5.93;;;;;;;35.54;31.24;100203.31;5031461;28;20067;-81
2021/07/14 11:59:36;;;;;;;9.30;5.95;;;;;;;35.83;31.10;100222.69;5031727;28;20634;-71
2021/07/14 12:02:07;;;;;;;17.52;8.02;;;;;;;35.99;31.15;100226.94;5029287;28;20037;-75
2021/07/14 12:04:35;;;;;;;20.17;7.28;;;;;;;36.24;30.72;100224.16;5014247;28;20044;-74
2021/07/14 12:07:06;;;;;;;11.02;6.38;;;;;;;36.39;32.27;100229.34;5031257;28;20049;-73
2021/07/14 12:09:34;;;;;;;9.30;6.38;;;;;;;36.23;29.34;100195.56;5030851;28;20041;-74
2021/07/14 12:12:02;;;;;;;8.88;6.15;;;;;;;36.47;28.02;100223.41;5029010;28;20029;-75
2021/07/14 12:14:29;;;;;;;13.75;6.82;;;;;;;36.63;28.14;100215.88;5030395;28;20061;-77
2021/07/14 12:17:01;;;;;;;12.52;6.93;;;;;;;36.41;30.16;100177.22;5012357;28;20030;-74
2021/07/14 12:19:31;;;;;;;10.70;6.20;;;;;;;36.65;32.24;100211.25;5027562;28;20041;-79
2021/07/14 12:22:04;;;;;;;11.98;6.30;;;;;;;36.41;30.31;100211.28;5029252;28;20041;-79
2021/07/14 12:24:45;;;;;;;10.00;5.90;;;;;;;36.37;30.93;100213.34;5026763;28;20156;-77
2021/07/14 12:27:13;;;;;;;9.10;6.30;;;;;;;36.56;31.26;100218.19;5018074;28;20463;-80
2021/07/14 12:29:40;;;;;;;;;;;;;;;36.65;30.65;100213.06;5015457;28;20554;-77
2021/07/14 12:32:06;;;;;;;9.80;6.05;;;;;;;36.49;30.56;100206.19;5001162;28;19932;-77
2021/07/14 12:34:33;;;;;;;12.43;6.20;;;;;;;36.63;30.14;100212.34;5020592;28;20041;-74
2021/07/14 12:37:00;;;;;;;15.55;7.40;;;;;;;36.79;29.40;100202.09;5034800;28;20451;-77
2021/07/14 12:39:32;;;;;;;12.90;5.90;;;;;;;36.94;28.76;100196.50;5032099;28;20393;-78
2021/07/14 12:42:00;;;;;;;7.90;5.85;;;;;;;37.09;28.15;100195.31;5031675;28;20052;-77
2021/07/14 12:44:27;;;;;;;14.93;6.78;;;;;;;36.98;28.59;100179.16;5031875;28;20106;-79
2021/07/14 12:46:53;;;;;;;10.93;5.90;;;;;;;37.13;29.17;100190.56;5033692;28;20037;-77
2021/07/14 12:49:21;;;;;;;6.82;5.32;;;;;;;37.24;27.70;100183.31;5032228;28;20035;-77
2021/07/14 12:52:05;;;;;;;10.43;6.53;;;;;;;37.05;28.25;100191.13;5032359;28;20028;-74
2021/07/14 12:54:32;;;;;;;8.35;5.60;;;;;;;36.97;28.90;100199.81;5032816;28;20500;-80
2021/07/14 12:57:13;;;;;;;15.35;6.07;;;;;;;36.96;31.71;100195.41;5033235;28;20017;-73
2021/07/14 13:00:01;;;;;;;10.05;6.05;;;;;;;36.85;28.14;100190.91;5030803;28;20030;-74
2021/07/14 13:02:29;;;;;;;8.15;5.75;;;;;;;36.75;28.23;100192.53;5032122;28;20017;-74
2021/07/14 13:05:00;;;;;;;11.25;6.10;;;;;;;36.77;30.43;100163.69;5033209;28;20032;-78
2021/07/14 13:07:28;;;;;;;8.48;6.07;;;;;;;37.15;27.62;100186.75;5035303;28;20037;-76
2021/07/14 13:09:55;;;;;;;13.93;6.57;;;;;;;37.16;28.27;100190.28;5031761;28;20034;-78
2021/07/14 13:12:21;;;;;;;13.98;6.35;;;;;;;37.22;29.49;100192.50;5035081;28;20040;-76
2021/07/14 13:14:49;;;;;;;15.57;7.15;;;;;;;37.42;28.28;100192.75;5046909;28;20025;-78
2021/07/14 13:17:47;;;;;;;12.65;6.30;;;;;;;37.58;27.50;100184.28;5032258;28;20087;-83
2021/07/14 13:20:14;;;;;;;9.35;5.30;;;;;;;37.68;28.38;100194.16;5010080;28;20421;-80
2021/07/14 13:22:42;;;;;;;9.48;5.80;;;;;;;37.43;26.77;100171.09;5010648;28;20037;-77
2021/07/14 13:25:14;;;;;;;12.43;6.40;;;;;;;36.61;28.82;100173.94;5010364;28;20028;-78
2021/07/14 13:27:41;;;;;;;8.00;5.90;;;;;;;36.71;28.43;100169.56;5012468;28;20409;-78
2021/07/14 13:30:21;;;;;;;6.70;6.00;;;;;;;36.57;28.49;100146.44;5012050;28;20043;-72
2021/07/14 13:33:01;;;;;;;16.80;7.53;;;;;;;37.01;31.44;100171.72;5012585;28;20075;-71
2021/07/14 13:35:27;;;;;;;23.52;8.27;;;;;;;37.03;29.59;100168.91;5012848;28;20021;-74
2021/07/14 13:37:53;;;;;;;13.30;6.55;;;;;;;37.04;28.77;100160.69;5018546;28;20428;-73
2021/07/14 13:40:26;;;;;;;12.00;6.35;;;;;;;37.20;27.65;100165.72;5010638;28;20026;-72
2021/07/14 13:42:53;;;;;;;10.77;5.78;;;;;;;37.27;27.16;100144.53;5029667;28;20038;-73
2021/07/14 13:45:33;;;;;;;8.30;5.78;;;;;;;37.65;26.13;100164.81;5028911;28;20029;-74
2021/07/14 13:48:01;;;;;;;13.43;6.32;;;;;;;37.86;27.09;100161.34;5009996;28;20022;-75
2021/07/14 13:50:28;;;;;;;9.68;5.78;;;;;;;37.72;29.47;100149.84;5016408;28;20521;-74
2021/07/14 13:53:04;;;;;;;7.78;5.60;;;;;;;37.55;27.16;100147.69;5030058;28;20113;-71
2021/07/14 13:55:30;;;;;;;8.38;6.07;;;;;;;37.68;28.05;100152.94;5038008;28;20104;-74
2021/07/14 13:58:07;;;;;;;11.13;5.68;;;;;;;37.71;29.14;100160.72;5051862;28;20025;-74
2021/07/14 14:00:33;;;;;;;11.93;6.15;;;;;;;37.75;29.03;100164.91;5051535;28;20033;-77
2021/07/14 14:02:58;;;;;;;11.13;7.03;;;;;;;37.63;29.16;100145.22;5052411;28;20029;-68
2021/07/14 14:05:25;;;;;;;13.32;6.80;;;;;;;37.61;27.77;100152.59;5050863;28;20029;-72
2021/07/14 14:07:51;;;;;;;12.20;6.07;;;;;;;37.61;26.74;100138.25;5051605;28;20025;-73
2021/07/14 14:10:22;;;;;;;10.13;6.20;;;;;;;37.63;28.66;100145.22;5051993;28;20032;-74
2021/07/14 14:12:52;;;;;;;11.20;6.25;;;;;;;37.39;29.73;100158.88;5051714;28;20024;-71
2021/07/14 14:15:23;;;;;;;16.15;7.20;;;;;;;37.47;28.55;100156.38;5056068;28;20064;-72
2021/07/14 14:17:50;;;;;;;15.05;8.23;;;;;;;37.56;27.32;100149.38;5051493;28;20028;-72
2021/07/14 14:20:26;;;;;;;13.07;6.65;;;;;;;37.65;27.65;100142.41;5051971;28;20035;-74
2021/07/14 14:22:51;;;;;;;12.10;6.30;;;;;;;37.54;28.57;100151.38;5051262;28;20029;-70
2021/07/14 14:25:22;;;;;;;11.68;5.85;;;;;;;37.61;27.51;100151.72;5050607;28;20040;-71
2021/07/14 14:30:16;;;;;;;15.38;6.57;;;;;;;37.75;27.98;100158.66;5051376;28;20043;-71
2021/07/14 14:32:43;;;;;;;9.63;6.32;;;;;;;37.80;29.09;100156.44;5049959;28;20377;-72
2021/07/14 14:35:09;;;;;;;10.35;6.75;;;;;;;37.86;27.14;100156.81;5051665;28;20044;-71
2021/07/14 14:37:35;;;;;;;8.95;6.20;;;;;;;37.86;28.92;100153.25;5049695;28;20131;-71
2021/07/14 14:40:00;;;;;;;10.35;6.85;;;;;;;37.53;27.52;100128.97;5040126;28;20093;-69
2021/07/14 14:42:26;;;;;;;11.18;7.78;;;;;;;36.84;28.54;100148.78;5039645;28;20044;-75
2021/07/14 14:44:51;;;;;;;13.45;6.72;;;;;;;36.94;28.49;100146.28;5050540;28;20029;-74
2021/07/14 14:47:16;;;;;;;15.10;7.88;;;;;;;36.44;30.01;100151.94;5047907;28;20051;-74
2021/07/14 14:49:42;;;;;;;11.60;6.72;;;;;;;36.71;31.46;100150.72;5029143;28;20428;-76
2021/07/14 14:52:07;;;;;;;12.13;6.68;;;;;;;36.91;30.69;100147.38;5044709;28;20171;-76
2021/07/14 14:54:34;;;;;;;14.50;7.07;;;;;;;37.02;30.39;100156.41;5040330;28;20519;-72
2021/07/14 14:57:00;;;;;;;12.13;7.53;;;;;;;36.94;29.93;100156.16;5041388;28;20036;-77
2021/07/14 14:59:26;;;;;;;10.32;7.20;;;;;;;37.03;29.07;100153.59;5044159;28;20389;-75
2021/07/14 15:01:51;;;;;;;11.60;7.25;;;;;;;37.02;30.20;100154.56;5032163;28;20065;-76
2021/07/14 15:04:19;;;;;;;10.70;7.95;;;;;;;37.15;30.77;100149.06;5036214;28;20049;-75
2021/07/14 15:06:45;;;;;;;13.70;7.38;;;;;;;37.17;29.25;100149.78;5039092;28;20025;-74
2021/07/14 15:09:11;;;;;;;12.73;7.30;;;;;;;36.98;29.91;100146.88;5049759;28;20389;-74
2021/07/14 15:11:37;;;;;;;9.38;6.95;;;;;;;36.94;29.55;100142.69;5050058;28;20025;-72
2021/07/14 15:14:03;;;;;;;8.63;7.00;;;;;;;36.71;29.89;100142.66;5037053;28;20029;-75
2021/07/14 15:16:29;;;;;;;13.93;7.60;;;;;;;36.83;30.87;100155.16;5037139;28;20099;-75
2021/07/14 15:18:57;;;;;;;13.48;7.10;;;;;;;36.83;31.37;100152.47;5049751;28;20053;-76
2021/07/14 15:21:25;;;;;;;15.85;7.60;;;;;;;36.90;30.96;100147.47;5034070;28;20103;-76
2021/07/14 15:23:53;;;;;;;16.00;7.25;;;;;;;36.84;31.44;100151.47;5040715;28;20078;-73
2021/07/14 15:29:03;;;;;;;12.02;7.03;;;;;;;36.81;30.30;100140.94;5050750;28;20091;-75
2021/07/14 15:31:28;;;;;;;7.60;6.80;;;;;;;36.80;30.46;100152.72;5050664;28;20108;-72
2021/07/14 15:33:57;;;;;;;12.82;7.97;;;;;;;36.68;31.31;100153.69;5050519;28;20103;-73
2021/07/14 15:36:23;;;;;;;;;;;;;;;36.59;30.23;100149.88;5051164;28;20021;-74
2021/07/14 15:38:48;;;;;;;11.27;7.40;;;;;;;36.46;32.36;100141.88;5050772;28;20111;-74
2021/07/14 15:41:14;;;;;;;10.63;7.07;;;;;;;36.61;32.22;100144.38;5050543;28;20045;-73
2021/07/14 15:43:39;;;;;;;12.25;7.22;;;;;;;36.63;32.17;100142.44;5050621;28;20051;-73
2021/07/14 15:46:05;;;;;;;14.77;7.97;;;;;;;36.57;31.08;100149.13;5043645;28;20083;-76
2021/07/14 15:48:30;;;;;;;18.33;7.82;;;;;;;36.56;31.52;100148.28;5031298;28;20493;-73
2021/07/14 15:50:56;;;;;;;25.98;9.93;;;;;;;36.44;32.15;100151.94;5039765;28;20033;-73
2021/07/14 15:53:21;;;;;;;19.42;8.00;;;;;;;36.43;32.54;100134.91;5045281;28;20036;-73
2021/07/14 15:55:48;;;;;;;10.13;8.10;;;;;;;36.50;31.74;100148.75;5031692;28;20025;-74
2021/07/14 15:58:13;;;;;;;12.90;8.23;;;;;;;36.01;31.98;100096.06;5039694;28;20041;-73
2021/07/14 16:00:39;;;;;;;11.68;7.40;;;;;;;36.26;32.49;100146.97;5033106;28;20481;-73
2021/07/14 16:03:05;;;;;;;14.80;8.30;;;;;;;36.31;33.20;100153.81;5049946;28;20568;-73
2021/07/14 16:05:31;;;;;;;17.48;8.30;;;;;;;36.35;32.44;100160.66;5050016;28;20032;-73
2021/07/14 16:07:56;;;;;;;11.25;7.90;;;;;;;36.22;31.10;100152.69;5050301;28;20033;-73
2021/07/14 16:10:22;;;;;;;13.18;8.15;;;;;;;36.00;31.93;100131.94;5050447;28;20030;-71
2021/07/14 16:12:47;;;;;;;10.90;7.82;;;;;;;36.17;32.52;100149.50;5050446;28;20040;-73
2021/07/14 16:15:13;;;;;;;10.25;8.00;;;;;;;36.04;33.17;100158.47;5050380;28;20082;-73